sensor_id;sensor_type;location;lat;lon;timestamp;P1;durP1;ratioP1;P2;durP2;ratioP2
56255;SDS011;57229;51.432;-2.598;2023-11-19T00:00:56;33.60;;;8.10;;
56255;SDS011;57229;51.432;-2.598;2023-11-19T00:03:22;36.75;;;7.35;;
56255;SDS011;57229;51.432;-2.598;2023-11-19T00:05:47;44.47;;;7.88;;
56255;SDS011;57229;51.432;-2.598;2023-11-19T00:08:13;40.92;;;7.85;;
56255;SDS011;57229;51.432;-2.598;2023-11-19T00:10:39;41.92;;;7.78;;
56255;SDS011;57229;51.432;-2.598;2023-11-19T00:13:04;32.28;;;7.38;;
56255;SDS011;57229;51.432;-2.598;2023-11-19T00:15:30;37.22;;;7.70;;
56255;SDS011;57229;51.432;-2.598;2023-11-19T00:17:55;32.85;;;7.38;;
56255;SDS011;57229;51.432;-2.598;2023-11-19T00:20:21;49.05;;;8.57;;
56255;SDS011;57229;51.432;-2.598;2023-11-19T00:22:47;32.92;;;8.18;;
56255;SDS011;57229;51.432;-2.598;2023-11-19T00:25:19;28.35;;;7.05;;
56255;SDS011;57229;51.432;-2.598;2023-11-19T00:27:46;35.08;;;7.22;;
56255;SDS011;57229;51.432;-2.598;2023-11-19T00:30:12;41.45;;;7.80;;
56255;SDS011;57229;51.432;-2.598;2023-11-19T00:32:39;45.70;;;8.40;;
56255;SDS011;57229;51.432;-2.598;2023-11-19T00:35:07;39.58;;;8.32;;
56255;SDS011;57229;51.432;-2.598;2023-11-19T00:37:35;49.33;;;7.88;;
56255;SDS011;57229;51.432;-2.598;2023-11-19T00:40:01;38.28;;;8.25;;
56255;SDS011;57229;51.432;-2.598;2023-11-19T00:42:30;41.35;;;8.38;;
56255;SDS011;57229;51.432;-2.598;2023-11-19T00:44:56;37.88;;;7.85;;
56255;SDS011;57229;51.432;-2.598;2023-11-19T00:47:22;37.33;;;7.53;;
56255;SDS011;57229;51.432;-2.598;2023-11-19T00:49:48;39.35;;;7.90;;
56255;SDS011;57229;51.432;-2.598;2023-11-19T00:52:15;35.25;;;7.50;;
56255;SDS011;57229;51.432;-2.598;2023-11-19T00:54:41;47.30;;;8.07;;
56255;SDS011;57229;51.432;-2.598;2023-11-19T00:57:07;31.23;;;7.68;;
56255;SDS011;57229;51.432;-2.598;2023-11-19T00:59:33;30.17;;;7.22;;
56255;SDS011;57229;51.432;-2.598;2023-11-19T01:01:58;24.70;;;6.45;;
56255;SDS011;57229;51.432;-2.598;2023-11-19T01:04:28;31.17;;;7.63;;
56255;SDS011;57229;51.432;-2.598;2023-11-19T01:06:54;38.78;;;7.50;;
56255;SDS011;57229;51.432;-2.598;2023-11-19T01:09:20;29.35;;;6.85;;
56255;SDS011;57229;51.432;-2.598;2023-11-19T01:11:45;33.42;;;7.90;;
56255;SDS011;57229;51.432;-2.598;2023-11-19T01:14:11;37.25;;;7.18;;
56255;SDS011;57229;51.432;-2.598;2023-11-19T01:16:36;44.17;;;8.52;;
56255;SDS011;57229;51.432;-2.598;2023-11-19T01:19:02;34.22;;;7.47;;
56255;SDS011;57229;51.432;-2.598;2023-11-19T01:21:30;37.33;;;8.55;;
56255;SDS011;57229;51.432;-2.598;2023-11-19T01:23:56;42.67;;;7.13;;
56255;SDS011;57229;51.432;-2.598;2023-11-19T01:26:23;30.77;;;6.88;;
56255;SDS011;57229;51.432;-2.598;2023-11-19T01:28:49;34.35;;;7.53;;
56255;SDS011;57229;51.432;-2.598;2023-11-19T01:31:17;32.03;;;6.70;;
56255;SDS011;57229;51.432;-2.598;2023-11-19T01:33:43;36.83;;;7.57;;
56255;SDS011;57229;51.432;-2.598;2023-11-19T01:36:08;33.33;;;7.28;;
56255;SDS011;57229;51.432;-2.598;2023-11-19T01:38:37;36.80;;;7.80;;
56255;SDS011;57229;51.432;-2.598;2023-11-19T01:41:03;26.05;;;6.93;;
56255;SDS011;57229;51.432;-2.598;2023-11-19T01:43:35;24.73;;;6.35;;
56255;SDS011;57229;51.432;-2.598;2023-11-19T01:46:01;24.83;;;7.20;;
56255;SDS011;57229;51.432;-2.598;2023-11-19T01:48:31;36.22;;;7.30;;
56255;SDS011;57229;51.432;-2.598;2023-11-19T01:50:58;23.38;;;6.60;;
56255;SDS011;57229;51.432;-2.598;2023-11-19T01:53:25;49.67;;;7.90;;
56255;SDS011;57229;51.432;-2.598;2023-11-19T01:55:51;21.33;;;6.40;;
56255;SDS011;57229;51.432;-2.598;2023-11-19T01:58:17;33.55;;;8.20;;
56255;SDS011;57229;51.432;-2.598;2023-11-19T02:00:44;35.25;;;7.75;;
56255;SDS011;57229;51.432;-2.598;2023-11-19T02:03:10;34.55;;;7.35;;
56255;SDS011;57229;51.432;-2.598;2023-11-19T02:05:36;23.92;;;6.47;;
56255;SDS011;57229;51.432;-2.598;2023-11-19T02:08:03;20.42;;;6.60;;
56255;SDS011;57229;51.432;-2.598;2023-11-19T02:10:29;30.35;;;6.43;;
56255;SDS011;57229;51.432;-2.598;2023-11-19T02:12:54;26.58;;;7.22;;
56255;SDS011;57229;51.432;-2.598;2023-11-19T02:15:20;27.90;;;7.57;;
56255;SDS011;57229;51.432;-2.598;2023-11-19T02:17:49;22.48;;;6.95;;
56255;SDS011;57229;51.432;-2.598;2023-11-19T02:20:15;34.38;;;7.50;;
56255;SDS011;57229;51.432;-2.598;2023-11-19T02:22:41;27.98;;;7.95;;
56255;SDS011;57229;51.432;-2.598;2023-11-19T02:25:07;32.22;;;7.30;;
56255;SDS011;57229;51.432;-2.598;2023-11-19T02:30:21;26.20;;;6.95;;
56255;SDS011;57229;51.432;-2.598;2023-11-19T02:32:51;23.60;;;6.82;;
56255;SDS011;57229;51.432;-2.598;2023-11-19T02:35:18;24.45;;;6.47;;
56255;SDS011;57229;51.432;-2.598;2023-11-19T02:37:43;26.55;;;6.82;;
56255;SDS011;57229;51.432;-2.598;2023-11-19T02:40:10;27.02;;;7.38;;
56255;SDS011;57229;51.432;-2.598;2023-11-19T02:42:45;36.33;;;7.05;;
56255;SDS011;57229;51.432;-2.598;2023-11-19T02:45:32;26.90;;;6.78;;
56255;SDS011;57229;51.432;-2.598;2023-11-19T02:47:58;21.10;;;6.20;;
56255;SDS011;57229;51.432;-2.598;2023-11-19T02:50:26;27.40;;;6.90;;
56255;SDS011;57229;51.432;-2.598;2023-11-19T02:52:53;29.10;;;7.65;;
56255;SDS011;57229;51.432;-2.598;2023-11-19T02:55:21;29.25;;;7.00;;
56255;SDS011;57229;51.432;-2.598;2023-11-19T02:57:48;27.38;;;6.43;;
56255;SDS011;57229;51.432;-2.598;2023-11-19T03:00:22;34.67;;;7.53;;
56255;SDS011;57229;51.432;-2.598;2023-11-19T03:03:01;18.75;;;5.43;;
56255;SDS011;57229;51.432;-2.598;2023-11-19T03:05:48;24.23;;;5.97;;
56255;SDS011;57229;51.432;-2.598;2023-11-19T03:08:14;28.08;;;7.03;;
56255;SDS011;57229;51.432;-2.598;2023-11-19T03:10:41;34.88;;;7.07;;
56255;SDS011;57229;51.432;-2.598;2023-11-19T03:13:11;27.95;;;6.78;;
56255;SDS011;57229;51.432;-2.598;2023-11-19T03:15:39;27.20;;;6.63;;
56255;SDS011;57229;51.432;-2.598;2023-11-19T03:18:06;31.58;;;7.10;;
56255;SDS011;57229;51.432;-2.598;2023-11-19T03:20:32;33.88;;;7.05;;
56255;SDS011;57229;51.432;-2.598;2023-11-19T03:22:58;24.23;;;6.40;;
56255;SDS011;57229;51.432;-2.598;2023-11-19T03:25:26;18.35;;;6.38;;
56255;SDS011;57229;51.432;-2.598;2023-11-19T03:28:04;31.65;;;6.68;;
56255;SDS011;57229;51.432;-2.598;2023-11-19T03:33:25;33.45;;;7.57;;
56255;SDS011;57229;51.432;-2.598;2023-11-19T03:35:52;28.17;;;8.70;;
56255;SDS011;57229;51.432;-2.598;2023-11-19T03:38:18;37.17;;;8.82;;
56255;SDS011;57229;51.432;-2.598;2023-11-19T03:40:44;30.30;;;9.63;;
56255;SDS011;57229;51.432;-2.598;2023-11-19T03:43:18;26.50;;;8.15;;
56255;SDS011;57229;51.432;-2.598;2023-11-19T03:45:46;27.60;;;8.73;;
56255;SDS011;57229;51.432;-2.598;2023-11-19T03:48:25;43.42;;;9.18;;
56255;SDS011;57229;51.432;-2.598;2023-11-19T03:50:51;44.72;;;9.73;;
56255;SDS011;57229;51.432;-2.598;2023-11-19T03:53:17;30.38;;;9.63;;
56255;SDS011;57229;51.432;-2.598;2023-11-19T03:55:44;41.35;;;10.63;;
56255;SDS011;57229;51.432;-2.598;2023-11-19T03:58:10;35.00;;;9.95;;
56255;SDS011;57229;51.432;-2.598;2023-11-19T04:00:37;33.83;;;10.25;;
56255;SDS011;57229;51.432;-2.598;2023-11-19T04:03:03;38.13;;;9.90;;
56255;SDS011;57229;51.432;-2.598;2023-11-19T04:05:29;26.50;;;9.73;;
56255;SDS011;57229;51.432;-2.598;2023-11-19T04:07:55;19.67;;;7.88;;
56255;SDS011;57229;51.432;-2.598;2023-11-19T04:10:21;22.90;;;7.75;;
56255;SDS011;57229;51.432;-2.598;2023-11-19T04:12:47;34.45;;;8.45;;
56255;SDS011;57229;51.432;-2.598;2023-11-19T04:15:13;26.83;;;7.82;;
56255;SDS011;57229;51.432;-2.598;2023-11-19T04:17:39;25.55;;;8.07;;
56255;SDS011;57229;51.432;-2.598;2023-11-19T04:20:05;27.90;;;8.32;;
56255;SDS011;57229;51.432;-2.598;2023-11-19T04:22:35;36.53;;;8.18;;
56255;SDS011;57229;51.432;-2.598;2023-11-19T04:25:01;40.10;;;8.88;;
56255;SDS011;57229;51.432;-2.598;2023-11-19T04:27:27;22.70;;;7.70;;
56255;SDS011;57229;51.432;-2.598;2023-11-19T04:29:53;22.23;;;6.93;;
56255;SDS011;57229;51.432;-2.598;2023-11-19T04:32:20;21.83;;;6.85;;
56255;SDS011;57229;51.432;-2.598;2023-11-19T04:34:46;27.52;;;7.03;;
56255;SDS011;57229;51.432;-2.598;2023-11-19T04:37:16;23.48;;;6.85;;
56255;SDS011;57229;51.432;-2.598;2023-11-19T04:39:56;25.42;;;8.10;;
56255;SDS011;57229;51.432;-2.598;2023-11-19T04:42:22;24.63;;;6.90;;
56255;SDS011;57229;51.432;-2.598;2023-11-19T04:44:49;30.90;;;7.55;;
56255;SDS011;57229;51.432;-2.598;2023-11-19T04:47:15;30.90;;;8.43;;
56255;SDS011;57229;51.432;-2.598;2023-11-19T04:49:43;25.65;;;8.23;;
56255;SDS011;57229;51.432;-2.598;2023-11-19T04:52:09;30.35;;;8.50;;
56255;SDS011;57229;51.432;-2.598;2023-11-19T04:54:40;17.80;;;8.40;;
56255;SDS011;57229;51.432;-2.598;2023-11-19T04:57:09;32.13;;;8.80;;
56255;SDS011;57229;51.432;-2.598;2023-11-19T04:59:38;18.90;;;7.72;;
56255;SDS011;57229;51.432;-2.598;2023-11-19T05:02:04;17.38;;;7.80;;
56255;SDS011;57229;51.432;-2.598;2023-11-19T05:04:30;32.55;;;8.65;;
56255;SDS011;57229;51.432;-2.598;2023-11-19T05:06:56;34.10;;;8.98;;
56255;SDS011;57229;51.432;-2.598;2023-11-19T05:09:22;23.65;;;8.05;;
56255;SDS011;57229;51.432;-2.598;2023-11-19T05:11:48;35.90;;;8.95;;
56255;SDS011;57229;51.432;-2.598;2023-11-19T05:14:14;38.92;;;8.80;;
56255;SDS011;57229;51.432;-2.598;2023-11-19T05:16:40;29.60;;;8.43;;
56255;SDS011;57229;51.432;-2.598;2023-11-19T05:19:09;22.27;;;7.43;;
56255;SDS011;57229;51.432;-2.598;2023-11-19T05:21:35;30.52;;;8.23;;
56255;SDS011;57229;51.432;-2.598;2023-11-19T05:24:01;23.17;;;7.82;;
56255;SDS011;57229;51.432;-2.598;2023-11-19T05:26:29;28.77;;;7.15;;
56255;SDS011;57229;51.432;-2.598;2023-11-19T05:28:56;32.78;;;8.05;;
56255;SDS011;57229;51.432;-2.598;2023-11-19T05:31:22;24.83;;;7.45;;
56255;SDS011;57229;51.432;-2.598;2023-11-19T05:33:48;23.02;;;7.38;;
56255;SDS011;57229;51.432;-2.598;2023-11-19T05:36:13;19.92;;;6.40;;
56255;SDS011;57229;51.432;-2.598;2023-11-19T05:38:39;23.77;;;7.80;;
56255;SDS011;57229;51.432;-2.598;2023-11-19T05:41:05;25.50;;;7.75;;
56255;SDS011;57229;51.432;-2.598;2023-11-19T05:43:31;16.55;;;5.93;;
56255;SDS011;57229;51.432;-2.598;2023-11-19T05:45:57;31.35;;;7.85;;
56255;SDS011;57229;51.432;-2.598;2023-11-19T05:48:24;29.38;;;6.40;;
56255;SDS011;57229;51.432;-2.598;2023-11-19T05:50:50;30.55;;;8.02;;
56255;SDS011;57229;51.432;-2.598;2023-11-19T05:53:16;26.17;;;7.07;;
56255;SDS011;57229;51.432;-2.598;2023-11-19T05:55:42;22.92;;;6.68;;
56255;SDS011;57229;51.432;-2.598;2023-11-19T05:58:19;28.23;;;6.93;;
56255;SDS011;57229;51.432;-2.598;2023-11-19T06:00:54;22.38;;;6.63;;
56255;SDS011;57229;51.432;-2.598;2023-11-19T06:03:21;23.00;;;6.35;;
56255;SDS011;57229;51.432;-2.598;2023-11-19T06:05:49;36.75;;;8.48;;
56255;SDS011;57229;51.432;-2.598;2023-11-19T06:08:15;20.92;;;6.70;;
56255;SDS011;57229;51.432;-2.598;2023-11-19T06:10:41;24.58;;;7.05;;
56255;SDS011;57229;51.432;-2.598;2023-11-19T06:13:08;25.27;;;7.57;;
56255;SDS011;57229;51.432;-2.598;2023-11-19T06:15:35;26.65;;;6.53;;
56255;SDS011;57229;51.432;-2.598;2023-11-19T06:18:01;34.30;;;7.35;;
56255;SDS011;57229;51.432;-2.598;2023-11-19T06:20:32;27.52;;;6.03;;
56255;SDS011;57229;51.432;-2.598;2023-11-19T06:22:58;18.70;;;6.18;;
56255;SDS011;57229;51.432;-2.598;2023-11-19T06:25:24;26.85;;;6.78;;
56255;SDS011;57229;51.432;-2.598;2023-11-19T06:28:00;28.27;;;7.15;;
56255;SDS011;57229;51.432;-2.598;2023-11-19T06:30:26;29.85;;;7.15;;
56255;SDS011;57229;51.432;-2.598;2023-11-19T06:32:53;18.30;;;6.53;;
56255;SDS011;57229;51.432;-2.598;2023-11-19T06:35:19;24.00;;;6.65;;
56255;SDS011;57229;51.432;-2.598;2023-11-19T06:37:44;25.20;;;7.90;;
56255;SDS011;57229;51.432;-2.598;2023-11-19T06:40:10;28.15;;;7.13;;
56255;SDS011;57229;51.432;-2.598;2023-11-19T06:42:37;25.13;;;6.72;;
56255;SDS011;57229;51.432;-2.598;2023-11-19T06:45:04;21.60;;;6.43;;
56255;SDS011;57229;51.432;-2.598;2023-11-19T06:47:31;32.40;;;7.05;;
56255;SDS011;57229;51.432;-2.598;2023-11-19T06:49:57;34.63;;;7.70;;
56255;SDS011;57229;51.432;-2.598;2023-11-19T06:52:23;28.33;;;7.22;;
56255;SDS011;57229;51.432;-2.598;2023-11-19T06:54:50;28.55;;;7.82;;
56255;SDS011;57229;51.432;-2.598;2023-11-19T06:57:15;22.33;;;6.32;;
56255;SDS011;57229;51.432;-2.598;2023-11-19T06:59:42;24.70;;;7.13;;
56255;SDS011;57229;51.432;-2.598;2023-11-19T07:02:07;21.65;;;6.93;;
56255;SDS011;57229;51.432;-2.598;2023-11-19T07:04:33;22.23;;;6.47;;
56255;SDS011;57229;51.432;-2.598;2023-11-19T07:06:59;23.15;;;6.63;;
56255;SDS011;57229;51.432;-2.598;2023-11-19T07:09:25;21.45;;;5.97;;
56255;SDS011;57229;51.432;-2.598;2023-11-19T07:11:52;24.02;;;5.28;;
56255;SDS011;57229;51.432;-2.598;2023-11-19T07:14:18;31.10;;;6.57;;
56255;SDS011;57229;51.432;-2.598;2023-11-19T07:16:44;18.33;;;5.97;;
56255;SDS011;57229;51.432;-2.598;2023-11-19T07:19:11;23.42;;;6.28;;
56255;SDS011;57229;51.432;-2.598;2023-11-19T07:21:37;15.45;;;5.53;;
56255;SDS011;57229;51.432;-2.598;2023-11-19T07:24:09;17.77;;;6.20;;
56255;SDS011;57229;51.432;-2.598;2023-11-19T07:26:35;21.80;;;6.10;;
56255;SDS011;57229;51.432;-2.598;2023-11-19T07:29:02;20.55;;;5.97;;
56255;SDS011;57229;51.432;-2.598;2023-11-19T07:31:28;17.98;;;5.90;;
56255;SDS011;57229;51.432;-2.598;2023-11-19T07:33:53;18.10;;;5.50;;
56255;SDS011;57229;51.432;-2.598;2023-11-19T07:36:19;22.75;;;6.68;;
56255;SDS011;57229;51.432;-2.598;2023-11-19T07:38:45;24.55;;;5.75;;
56255;SDS011;57229;51.432;-2.598;2023-11-19T07:41:12;18.30;;;6.78;;
56255;SDS011;57229;51.432;-2.598;2023-11-19T07:43:43;29.83;;;6.40;;
56255;SDS011;57229;51.432;-2.598;2023-11-19T07:46:13;30.85;;;6.65;;
56255;SDS011;57229;51.432;-2.598;2023-11-19T07:48:39;26.35;;;6.28;;
56255;SDS011;57229;51.432;-2.598;2023-11-19T07:51:05;17.58;;;5.95;;
56255;SDS011;57229;51.432;-2.598;2023-11-19T07:53:31;19.98;;;6.50;;
56255;SDS011;57229;51.432;-2.598;2023-11-19T07:55:58;32.83;;;6.60;;
56255;SDS011;57229;51.432;-2.598;2023-11-19T07:58:24;21.30;;;6.40;;
56255;SDS011;57229;51.432;-2.598;2023-11-19T08:00:50;34.33;;;6.78;;
56255;SDS011;57229;51.432;-2.598;2023-11-19T08:03:17;33.15;;;6.55;;
56255;SDS011;57229;51.432;-2.598;2023-11-19T08:05:44;27.38;;;6.38;;
56255;SDS011;57229;51.432;-2.598;2023-11-19T08:08:12;28.88;;;7.07;;
56255;SDS011;57229;51.432;-2.598;2023-11-19T08:10:38;29.90;;;7.45;;
56255;SDS011;57229;51.432;-2.598;2023-11-19T08:13:04;17.08;;;6.28;;
56255;SDS011;57229;51.432;-2.598;2023-11-19T08:15:30;20.33;;;6.55;;
56255;SDS011;57229;51.432;-2.598;2023-11-19T08:17:56;32.00;;;7.32;;
56255;SDS011;57229;51.432;-2.598;2023-11-19T08:20:22;27.23;;;7.25;;
56255;SDS011;57229;51.432;-2.598;2023-11-19T08:22:48;22.98;;;7.00;;
56255;SDS011;57229;51.432;-2.598;2023-11-19T08:25:14;22.63;;;6.60;;
56255;SDS011;57229;51.432;-2.598;2023-11-19T08:27:39;26.73;;;6.82;;
56255;SDS011;57229;51.432;-2.598;2023-11-19T08:30:05;22.50;;;6.63;;
56255;SDS011;57229;51.432;-2.598;2023-11-19T08:32:32;25.02;;;6.47;;
56255;SDS011;57229;51.432;-2.598;2023-11-19T08:34:57;23.98;;;6.45;;
56255;SDS011;57229;51.432;-2.598;2023-11-19T08:37:23;24.60;;;7.93;;
56255;SDS011;57229;51.432;-2.598;2023-11-19T08:39:49;33.58;;;7.55;;
56255;SDS011;57229;51.432;-2.598;2023-11-19T08:42:15;40.13;;;8.68;;
56255;SDS011;57229;51.432;-2.598;2023-11-19T08:44:41;30.45;;;8.32;;
56255;SDS011;57229;51.432;-2.598;2023-11-19T08:47:12;33.05;;;7.80;;
56255;SDS011;57229;51.432;-2.598;2023-11-19T08:49:39;16.95;;;7.63;;
56255;SDS011;57229;51.432;-2.598;2023-11-19T08:52:05;29.35;;;7.78;;
56255;SDS011;57229;51.432;-2.598;2023-11-19T08:54:32;25.48;;;7.10;;
56255;SDS011;57229;51.432;-2.598;2023-11-19T08:56:58;23.27;;;6.60;;
56255;SDS011;57229;51.432;-2.598;2023-11-19T08:59:28;18.27;;;6.25;;
56255;SDS011;57229;51.432;-2.598;2023-11-19T09:01:54;22.55;;;7.07;;
56255;SDS011;57229;51.432;-2.598;2023-11-19T09:04:19;31.05;;;7.43;;
56255;SDS011;57229;51.432;-2.598;2023-11-19T09:06:47;30.02;;;7.38;;
56255;SDS011;57229;51.432;-2.598;2023-11-19T09:09:13;23.65;;;7.05;;
56255;SDS011;57229;51.432;-2.598;2023-11-19T09:11:39;23.90;;;6.25;;
56255;SDS011;57229;51.432;-2.598;2023-11-19T09:14:05;21.45;;;6.30;;
56255;SDS011;57229;51.432;-2.598;2023-11-19T09:16:30;21.63;;;6.85;;
56255;SDS011;57229;51.432;-2.598;2023-11-19T09:18:57;15.68;;;5.50;;
56255;SDS011;57229;51.432;-2.598;2023-11-19T09:21:24;19.65;;;5.47;;
56255;SDS011;57229;51.432;-2.598;2023-11-19T09:23:54;17.42;;;5.63;;
56255;SDS011;57229;51.432;-2.598;2023-11-19T09:26:20;19.77;;;6.00;;
56255;SDS011;57229;51.432;-2.598;2023-11-19T09:28:46;16.05;;;5.55;;
56255;SDS011;57229;51.432;-2.598;2023-11-19T09:31:15;23.38;;;5.97;;
56255;SDS011;57229;51.432;-2.598;2023-11-19T09:33:41;23.33;;;6.25;;
56255;SDS011;57229;51.432;-2.598;2023-11-19T09:36:07;26.50;;;6.60;;
56255;SDS011;57229;51.432;-2.598;2023-11-19T09:38:33;20.83;;;6.20;;
56255;SDS011;57229;51.432;-2.598;2023-11-19T09:41:03;28.48;;;6.63;;
56255;SDS011;57229;51.432;-2.598;2023-11-19T09:43:33;24.90;;;6.47;;
56255;SDS011;57229;51.432;-2.598;2023-11-19T09:45:59;20.98;;;6.50;;
56255;SDS011;57229;51.432;-2.598;2023-11-19T09:48:32;15.55;;;5.85;;
56255;SDS011;57229;51.432;-2.598;2023-11-19T09:51:00;19.65;;;6.18;;
56255;SDS011;57229;51.432;-2.598;2023-11-19T09:53:27;20.52;;;5.40;;
56255;SDS011;57229;51.432;-2.598;2023-11-19T09:55:53;18.65;;;5.55;;
56255;SDS011;57229;51.432;-2.598;2023-11-19T09:58:20;15.88;;;4.90;;
56255;SDS011;57229;51.432;-2.598;2023-11-19T10:00:45;13.10;;;6.18;;
56255;SDS011;57229;51.432;-2.598;2023-11-19T10:03:13;17.73;;;5.63;;
56255;SDS011;57229;51.432;-2.598;2023-11-19T10:05:38;17.63;;;5.35;;
56255;SDS011;57229;51.432;-2.598;2023-11-19T10:08:05;15.23;;;5.93;;
56255;SDS011;57229;51.432;-2.598;2023-11-19T10:10:31;19.55;;;6.35;;
56255;SDS011;57229;51.432;-2.598;2023-11-19T10:12:57;12.73;;;5.40;;
56255;SDS011;57229;51.432;-2.598;2023-11-19T10:15:24;17.42;;;6.00;;
56255;SDS011;57229;51.432;-2.598;2023-11-19T10:17:51;15.77;;;5.97;;
56255;SDS011;57229;51.432;-2.598;2023-11-19T10:20:19;20.50;;;6.57;;
56255;SDS011;57229;51.432;-2.598;2023-11-19T10:22:45;20.75;;;6.38;;
56255;SDS011;57229;51.432;-2.598;2023-11-19T10:25:21;19.67;;;6.60;;
56255;SDS011;57229;51.432;-2.598;2023-11-19T10:27:51;14.13;;;6.07;;
56255;SDS011;57229;51.432;-2.598;2023-11-19T10:30:21;17.10;;;6.45;;
56255;SDS011;57229;51.432;-2.598;2023-11-19T10:33:06;27.25;;;6.78;;
56255;SDS011;57229;51.432;-2.598;2023-11-19T10:35:33;19.48;;;6.20;;
56255;SDS011;57229;51.432;-2.598;2023-11-19T10:38:16;18.77;;;6.20;;
56255;SDS011;57229;51.432;-2.598;2023-11-19T10:40:41;20.27;;;6.43;;
56255;SDS011;57229;51.432;-2.598;2023-11-19T10:43:07;12.07;;;5.78;;
56255;SDS011;57229;51.432;-2.598;2023-11-19T10:45:34;13.07;;;6.05;;
56255;SDS011;57229;51.432;-2.598;2023-11-19T10:48:02;11.05;;;5.25;;
56255;SDS011;57229;51.432;-2.598;2023-11-19T10:50:37;15.00;;;6.15;;
56255;SDS011;57229;51.432;-2.598;2023-11-19T10:53:04;21.35;;;6.45;;
56255;SDS011;57229;51.432;-2.598;2023-11-19T10:55:32;14.35;;;6.40;;
56255;SDS011;57229;51.432;-2.598;2023-11-19T10:58:03;11.77;;;4.97;;
56255;SDS011;57229;51.432;-2.598;2023-11-19T11:00:45;12.90;;;5.63;;
56255;SDS011;57229;51.432;-2.598;2023-11-19T11:03:23;15.45;;;5.53;;
56255;SDS011;57229;51.432;-2.598;2023-11-19T11:05:51;13.48;;;5.32;;
56255;SDS011;57229;51.432;-2.598;2023-11-19T11:08:18;14.45;;;5.60;;
56255;SDS011;57229;51.432;-2.598;2023-11-19T11:10:45;9.40;;;4.95;;
56255;SDS011;57229;51.432;-2.598;2023-11-19T11:13:18;12.15;;;5.63;;
56255;SDS011;57229;51.432;-2.598;2023-11-19T11:15:44;14.93;;;5.63;;
56255;SDS011;57229;51.432;-2.598;2023-11-19T11:18:12;12.40;;;5.25;;
56255;SDS011;57229;51.432;-2.598;2023-11-19T11:20:38;9.52;;;5.55;;
56255;SDS011;57229;51.432;-2.598;2023-11-19T11:34:38;10.05;;;5.65;;
56255;SDS011;57229;51.432;-2.598;2023-11-19T11:37:18;11.82;;;6.00;;
56255;SDS011;57229;51.432;-2.598;2023-11-19T11:39:49;14.23;;;5.65;;
56255;SDS011;57229;51.432;-2.598;2023-11-19T11:45:03;8.25;;;6.00;;
56255;SDS011;57229;51.432;-2.598;2023-11-19T11:53:27;8.30;;;6.38;;
56255;SDS011;57229;51.432;-2.598;2023-11-19T11:55:34;11.95;;;7.15;;
56255;SDS011;57229;51.432;-2.598;2023-11-19T11:58:17;11.27;;;6.85;;
56255;SDS011;57229;51.432;-2.598;2023-11-19T12:00:56;14.05;;;6.88;;
56255;SDS011;57229;51.432;-2.598;2023-11-19T12:03:22;10.98;;;6.80;;
56255;SDS011;57229;51.432;-2.598;2023-11-19T12:05:48;10.40;;;6.55;;
56255;SDS011;57229;51.432;-2.598;2023-11-19T12:08:15;7.28;;;6.45;;
56255;SDS011;57229;51.432;-2.598;2023-11-19T12:10:51;10.77;;;6.38;;
56255;SDS011;57229;51.432;-2.598;2023-11-19T12:13:18;10.23;;;6.85;;
56255;SDS011;57229;51.432;-2.598;2023-11-19T12:18:28;10.32;;;6.53;;
56255;SDS011;57229;51.432;-2.598;2023-11-19T12:20:55;7.50;;;5.70;;
56255;SDS011;57229;51.432;-2.598;2023-11-19T12:23:24;8.30;;;6.50;;
56255;SDS011;57229;51.432;-2.598;2023-11-19T12:25:50;6.60;;;5.82;;
56255;SDS011;57229;51.432;-2.598;2023-11-19T12:28:17;8.48;;;5.95;;
56255;SDS011;57229;51.432;-2.598;2023-11-19T12:30:44;7.43;;;6.00;;
56255;SDS011;57229;51.432;-2.598;2023-11-19T12:33:11;10.43;;;6.10;;
56255;SDS011;57229;51.432;-2.598;2023-11-19T12:35:41;7.28;;;6.45;;
56255;SDS011;57229;51.432;-2.598;2023-11-19T12:38:08;7.75;;;5.78;;
56255;SDS011;57229;51.432;-2.598;2023-11-19T12:40:43;7.60;;;5.75;;
56255;SDS011;57229;51.432;-2.598;2023-11-19T12:43:08;12.60;;;6.10;;
56255;SDS011;57229;51.432;-2.598;2023-11-19T12:45:37;8.93;;;6.18;;
56255;SDS011;57229;51.432;-2.598;2023-11-19T12:48:07;15.48;;;7.00;;
56255;SDS011;57229;51.432;-2.598;2023-11-19T12:50:52;13.50;;;6.20;;
56255;SDS011;57229;51.432;-2.598;2023-11-19T12:53:23;12.18;;;5.80;;
56255;SDS011;57229;51.432;-2.598;2023-11-19T12:55:50;14.50;;;5.93;;
56255;SDS011;57229;51.432;-2.598;2023-11-19T13:01:00;16.30;;;5.90;;
56255;SDS011;57229;51.432;-2.598;2023-11-19T13:03:35;14.10;;;5.65;;
56255;SDS011;57229;51.432;-2.598;2023-11-19T13:08:51;8.00;;;5.50;;
56255;SDS011;57229;51.432;-2.598;2023-11-19T13:11:32;17.25;;;6.40;;
56255;SDS011;57229;51.432;-2.598;2023-11-19T13:14:04;15.80;;;5.45;;
56255;SDS011;57229;51.432;-2.598;2023-11-19T13:16:30;21.98;;;6.40;;
56255;SDS011;57229;51.432;-2.598;2023-11-19T13:18:57;17.85;;;6.18;;
56255;SDS011;57229;51.432;-2.598;2023-11-19T13:21:24;21.33;;;6.63;;
56255;SDS011;57229;51.432;-2.598;2023-11-19T13:23:50;16.48;;;6.15;;
56255;SDS011;57229;51.432;-2.598;2023-11-19T13:26:15;20.30;;;6.00;;
56255;SDS011;57229;51.432;-2.598;2023-11-19T13:28:41;13.77;;;5.80;;
56255;SDS011;57229;51.432;-2.598;2023-11-19T13:31:07;16.80;;;6.55;;
56255;SDS011;57229;51.432;-2.598;2023-11-19T13:33:32;15.48;;;5.47;;
56255;SDS011;57229;51.432;-2.598;2023-11-19T13:35:59;14.88;;;6.05;;
56255;SDS011;57229;51.432;-2.598;2023-11-19T13:38:30;26.15;;;7.28;;
56255;SDS011;57229;51.432;-2.598;2023-11-19T13:40:56;17.55;;;5.93;;
56255;SDS011;57229;51.432;-2.598;2023-11-19T13:43:22;33.75;;;7.90;;
56255;SDS011;57229;51.432;-2.598;2023-11-19T13:45:47;18.48;;;6.43;;
56255;SDS011;57229;51.432;-2.598;2023-11-19T13:48:13;19.50;;;6.03;;
56255;SDS011;57229;51.432;-2.598;2023-11-19T13:50:39;17.90;;;5.68;;
56255;SDS011;57229;51.432;-2.598;2023-11-19T13:53:04;17.40;;;6.00;;
56255;SDS011;57229;51.432;-2.598;2023-11-19T13:55:30;25.05;;;7.07;;
56255;SDS011;57229;51.432;-2.598;2023-11-19T13:57:55;19.25;;;6.75;;
56255;SDS011;57229;51.432;-2.598;2023-11-19T14:00:21;28.02;;;6.75;;
56255;SDS011;57229;51.432;-2.598;2023-11-19T14:02:49;24.95;;;7.18;;
56255;SDS011;57229;51.432;-2.598;2023-11-19T14:05:15;20.17;;;6.13;;
56255;SDS011;57229;51.432;-2.598;2023-11-19T14:07:42;26.42;;;6.32;;
56255;SDS011;57229;51.432;-2.598;2023-11-19T14:10:09;23.95;;;6.30;;
56255;SDS011;57229;51.432;-2.598;2023-11-19T14:12:39;16.63;;;6.15;;
56255;SDS011;57229;51.432;-2.598;2023-11-19T14:15:16;14.73;;;6.00;;
56255;SDS011;57229;51.432;-2.598;2023-11-19T14:17:44;14.65;;;5.93;;
56255;SDS011;57229;51.432;-2.598;2023-11-19T14:20:10;13.93;;;5.65;;
56255;SDS011;57229;51.432;-2.598;2023-11-19T14:22:42;15.95;;;6.60;;
56255;SDS011;57229;51.432;-2.598;2023-11-19T14:25:08;18.63;;;6.32;;
56255;SDS011;57229;51.432;-2.598;2023-11-19T14:27:36;14.48;;;6.53;;
56255;SDS011;57229;51.432;-2.598;2023-11-19T14:30:05;20.95;;;6.40;;
56255;SDS011;57229;51.432;-2.598;2023-11-19T14:32:32;19.67;;;6.30;;
56255;SDS011;57229;51.432;-2.598;2023-11-19T14:34:58;19.60;;;6.38;;
56255;SDS011;57229;51.432;-2.598;2023-11-19T14:37:23;25.23;;;7.47;;
56255;SDS011;57229;51.432;-2.598;2023-11-19T14:39:49;23.65;;;7.00;;
56255;SDS011;57229;51.432;-2.598;2023-11-19T14:42:18;15.80;;;6.47;;
56255;SDS011;57229;51.432;-2.598;2023-11-19T14:44:43;15.50;;;5.70;;
56255;SDS011;57229;51.432;-2.598;2023-11-19T14:47:09;24.25;;;7.65;;
56255;SDS011;57229;51.432;-2.598;2023-11-19T14:49:35;22.08;;;7.03;;
56255;SDS011;57229;51.432;-2.598;2023-11-19T14:52:02;22.15;;;6.60;;
56255;SDS011;57229;51.432;-2.598;2023-11-19T14:54:28;29.52;;;7.63;;
56255;SDS011;57229;51.432;-2.598;2023-11-19T14:56:54;20.55;;;7.10;;